createdAt,value
2019-01-04T00:00:53.758Z,6.73
2019-01-04T00:03:22.178Z,8.90
2019-01-04T00:05:50.775Z,6.90
2019-01-04T00:08:19.269Z,7.77
2019-01-04T00:10:47.607Z,7.73
2019-01-04T00:13:16.094Z,8.63
2019-01-04T00:15:44.416Z,7.47
2019-01-04T00:18:12.858Z,9.00
2019-01-04T00:20:41.164Z,7.73
2019-01-04T00:23:09.516Z,8.50
2019-01-04T00:25:38.064Z,7.77
2019-01-04T00:28:07.560Z,7.80
2019-01-04T00:30:36.074Z,7.97
2019-01-04T00:33:05.483Z,7.93
2019-01-04T00:35:34.947Z,8.50
2019-01-04T00:38:03.284Z,7.93
2019-01-04T00:40:31.624Z,7.30
2019-01-04T00:42:59.972Z,8.33
2019-01-04T00:45:28.640Z,8.57
2019-01-04T00:47:57.156Z,6.60
2019-01-04T00:50:25.629Z,8.97
2019-01-04T00:52:54.681Z,7.43
2019-01-04T00:55:34.175Z,8.00
2019-01-04T00:58:15.411Z,7.80
2019-01-04T01:00:57.458Z,7.77
2019-01-04T01:04:46.801Z,8.13
2019-01-04T01:07:32.820Z,7.60
2019-01-04T01:12:14.521Z,8.53
2019-01-04T01:14:54.180Z,7.73
2019-01-04T01:17:33.502Z,10.90
2019-01-04T01:20:15.608Z,9.37
2019-01-04T01:25:00.978Z,9.00
2019-01-04T01:29:47.503Z,8.73
2019-01-04T01:32:27.190Z,8.60
2019-01-04T01:36:11.120Z,10.03
2019-01-04T01:40:52.464Z,9.03
2019-01-04T01:43:35.284Z,9.63
2019-01-04T01:48:17.042Z,8.37
2019-01-04T01:51:53.254Z,8.00
2019-01-04T01:54:21.774Z,7.00
2019-01-04T01:56:50.109Z,7.90
2019-01-04T01:59:18.470Z,8.63
2019-01-04T02:01:46.805Z,8.27
2019-01-04T02:04:15.307Z,7.37
2019-01-04T02:06:43.731Z,8.40
2019-01-04T02:09:12.105Z,8.23
2019-01-04T02:11:40.646Z,7.47
2019-01-04T02:14:09.039Z,8.10
2019-01-04T02:16:37.318Z,8.53
2019-01-04T02:19:05.687Z,8.57
2019-01-04T02:21:34.006Z,8.17
2019-01-04T02:24:02.746Z,9.43
2019-01-04T02:26:31.134Z,8.47
2019-01-04T02:28:59.439Z,7.57
2019-01-04T02:31:27.739Z,9.93
2019-01-04T02:33:56.424Z,8.80
2019-01-04T02:36:24.691Z,8.53
2019-01-04T02:38:53.050Z,9.10
2019-01-04T02:41:21.379Z,9.17
2019-01-04T02:43:49.740Z,9.83
2019-01-04T02:46:18.106Z,8.87
2019-01-04T02:48:46.518Z,9.17
2019-01-04T02:51:16.443Z,11.23
2019-01-04T02:53:44.797Z,8.17
2019-01-04T02:56:13.176Z,8.87
2019-01-04T02:59:31.351Z,8.60
2019-01-04T03:02:12.330Z,10.20
2019-01-04T03:07:36.890Z,9.97
2019-01-04T03:10:18.036Z,9.27
2019-01-04T03:12:58.830Z,8.60
2019-01-04T03:15:40.169Z,9.30
2019-01-04T03:18:20.756Z,8.33
2019-01-04T03:21:01.560Z,9.77
2019-01-04T03:23:42.388Z,9.40
2019-01-04T03:26:23.485Z,8.60
2019-01-04T03:29:04.286Z,7.83
2019-01-04T03:31:43.848Z,8.50
2019-01-04T03:34:25.107Z,9.43
2019-01-04T03:37:05.995Z,8.67
2019-01-04T03:39:46.958Z,8.27
2019-01-04T03:42:27.641Z,8.83
2019-01-04T03:45:08.270Z,8.60
2019-01-04T03:47:48.967Z,10.00
2019-01-04T03:50:29.757Z,9.00
2019-01-04T03:53:10.764Z,9.10
2019-01-04T03:55:51.481Z,9.43
2019-01-04T03:58:32.286Z,9.13
2019-01-04T04:01:12.945Z,8.40
2019-01-04T04:03:53.988Z,8.47
2019-01-04T04:06:34.470Z,8.67
2019-01-04T04:09:15.153Z,8.37
2019-01-04T04:17:24.222Z,8.50
2019-01-04T04:19:53.444Z,8.43
2019-01-04T04:22:23.670Z,8.87
2019-01-04T04:24:53.787Z,8.37
2019-01-04T04:27:23.052Z,8.33
2019-01-04T04:29:52.359Z,8.20
2019-01-04T04:32:28.605Z,7.37
2019-01-04T04:35:02.896Z,7.60
2019-01-04T04:37:34.055Z,8.60
2019-01-04T04:40:10.085Z,8.70
2019-01-04T04:42:41.512Z,7.47
2019-01-04T04:45:10.822Z,8.57
2019-01-04T04:47:40.993Z,9.60
2019-01-04T04:50:10.190Z,8.43
2019-01-04T04:52:41.401Z,8.67
2019-01-04T04:55:10.592Z,9.23
2019-01-04T04:57:45.830Z,10.20
2019-01-04T05:00:15.068Z,8.93
2019-01-04T05:02:50.424Z,9.30
2019-01-04T05:05:21.834Z,11.17
2019-01-04T05:07:56.877Z,8.93
2019-01-04T05:10:36.837Z,9.13
2019-01-04T05:13:15.560Z,8.57
2019-01-04T05:15:45.815Z,9.40
2019-01-04T05:18:15.127Z,8.53
2019-01-04T05:20:44.441Z,9.20
2019-01-04T05:23:15.736Z,9.53
2019-01-04T05:25:53.927Z,9.57
2019-01-04T05:28:24.381Z,11.23
2019-01-04T05:31:06.864Z,9.70
2019-01-04T05:33:39.176Z,9.80
2019-01-04T05:36:10.396Z,10.00
2019-01-04T05:38:43.808Z,10.03
2019-01-04T05:41:18.874Z,10.57
2019-01-04T05:43:52.371Z,10.10
2019-01-04T05:46:21.573Z,11.00
2019-01-04T05:48:50.816Z,11.17
2019-01-04T05:51:20.188Z,10.93
2019-01-04T05:53:55.795Z,10.63
2019-01-04T05:56:27.109Z,10.63
2019-01-04T05:58:57.455Z,10.47
2019-01-04T06:01:38.308Z,10.33
2019-01-04T06:04:18.199Z,11.33
2019-01-04T06:06:51.738Z,10.90
2019-01-04T06:09:24.617Z,10.70
2019-01-04T06:12:07.820Z,10.50
2019-01-04T06:14:48.781Z,10.13
2019-01-04T06:17:23.843Z,11.20
2019-01-04T06:19:53.412Z,9.90
2019-01-04T06:22:28.426Z,9.40
2019-01-04T06:25:06.925Z,9.23
2019-01-04T06:27:46.694Z,11.40
2019-01-04T06:30:16.400Z,9.63
2019-01-04T06:32:52.418Z,10.27
2019-01-04T06:35:21.640Z,9.10
2019-01-04T06:37:53.915Z,10.40
2019-01-04T06:40:33.471Z,9.37
2019-01-04T06:43:18.693Z,10.40
2019-01-04T06:51:49.930Z,9.20
2019-01-04T06:55:01.183Z,9.47
2019-01-04T06:57:31.251Z,8.50
2019-01-04T07:00:02.565Z,10.23
2019-01-04T07:02:31.718Z,10.03
2019-01-04T07:05:07.038Z,10.87
2019-01-04T07:07:36.163Z,10.47
2019-01-04T07:10:05.801Z,10.80
2019-01-04T07:12:37.088Z,10.20
2019-01-04T07:15:07.504Z,9.67
2019-01-04T07:17:42.871Z,11.17
2019-01-04T07:20:18.253Z,11.83
2019-01-04T07:22:47.537Z,9.70
2019-01-04T07:25:29.059Z,10.40
2019-01-04T07:28:01.216Z,9.53
2019-01-04T07:30:30.392Z,9.87
2019-01-04T07:33:08.821Z,10.93
2019-01-04T07:35:57.022Z,11.77
2019-01-04T07:38:27.593Z,12.23
2019-01-04T07:40:56.757Z,11.30
2019-01-04T07:43:25.872Z,12.23
2019-01-04T07:45:56.138Z,11.97
2019-01-04T07:48:25.371Z,11.43
2019-01-04T07:50:54.484Z,10.07
2019-01-04T07:53:23.662Z,11.70
2019-01-04T07:55:52.777Z,12.17
2019-01-04T07:58:22.151Z,11.17
2019-01-04T08:00:51.301Z,10.73
2019-01-04T08:03:41.457Z,11.07
2019-01-04T08:06:10.547Z,10.97
2019-01-04T08:11:34.926Z,10.67
2019-01-04T08:14:06.661Z,11.07
2019-01-04T08:16:36.056Z,12.27
2019-01-04T08:19:05.117Z,11.50
2019-01-04T08:21:41.385Z,13.13
2019-01-04T08:24:10.554Z,12.77
2019-01-04T08:27:02.922Z,12.20
2019-01-04T08:29:56.223Z,11.00
2019-01-04T08:32:40.160Z,11.30
2019-01-04T08:35:12.334Z,11.27
2019-01-04T08:37:47.337Z,11.70
2019-01-04T08:40:21.375Z,12.63
2019-01-04T08:42:50.580Z,11.37
2019-01-04T08:45:19.658Z,12.27
2019-01-04T08:47:52.780Z,12.47
2019-01-04T08:50:22.296Z,13.13
2019-01-04T08:52:53.252Z,11.97
2019-01-04T08:55:32.723Z,11.27
2019-01-04T08:58:09.927Z,11.90
2019-01-04T09:00:43.453Z,11.83
2019-01-04T09:03:10.033Z,10.73
2019-01-04T09:05:41.351Z,11.63
2019-01-04T09:08:11.535Z,10.90
2019-01-04T09:10:59.710Z,11.67
2019-01-04T09:13:48.117Z,12.43
2019-01-04T09:16:20.930Z,10.77
2019-01-04T09:18:52.042Z,9.37
2019-01-04T09:21:21.243Z,10.37
2019-01-04T09:23:50.426Z,11.00
2019-01-04T09:26:19.635Z,10.03
2019-01-04T09:28:48.891Z,9.77
2019-01-04T09:31:19.123Z,10.10
2019-01-04T09:33:54.347Z,10.87
2019-01-04T09:36:29.396Z,10.73
2019-01-04T09:39:29.695Z,10.13
2019-01-04T09:42:26.968Z,9.93
2019-01-04T09:45:39.431Z,10.77
2019-01-04T09:48:13.773Z,11.23
2019-01-04T09:50:54.390Z,9.63
2019-01-04T09:53:24.530Z,9.70
2019-01-04T09:56:05.663Z,9.60
2019-01-04T09:58:42.903Z,10.17
2019-01-04T10:01:12.403Z,9.73
2019-01-04T10:03:46.090Z,9.27
2019-01-04T10:06:16.170Z,8.47
2019-01-04T10:08:45.430Z,10.00
2019-01-04T10:11:14.615Z,9.43
2019-01-04T10:13:48.832Z,9.33
2019-01-04T10:16:33.133Z,9.20
2019-01-04T10:19:04.356Z,8.90
2019-01-04T10:21:33.581Z,8.03
2019-01-04T10:24:08.746Z,9.03
2019-01-04T10:26:37.874Z,9.20
2019-01-04T10:29:24.502Z,8.63
2019-01-04T10:31:53.823Z,9.37
2019-01-04T10:34:24.083Z,8.73
2019-01-04T10:37:05.374Z,8.63
2019-01-04T10:39:34.658Z,7.80
2019-01-04T10:42:12.980Z,9.27
2019-01-04T10:44:42.157Z,8.10
2019-01-04T10:47:12.413Z,7.90
2019-01-04T10:49:42.558Z,8.40
2019-01-04T10:52:17.762Z,7.00
2019-01-04T10:54:53.245Z,7.73
2019-01-04T10:57:28.526Z,7.93
2019-01-04T11:00:04.934Z,7.67
2019-01-04T11:02:34.082Z,7.10
2019-01-04T11:05:05.702Z,7.07
2019-01-04T11:07:34.871Z,7.37
2019-01-04T11:10:06.127Z,7.37
2019-01-04T11:12:35.228Z,7.47
2019-01-04T11:15:14.462Z,7.87
2019-01-04T11:17:43.688Z,7.03
2019-01-04T11:20:40.953Z,7.77
2019-01-04T11:23:40.904Z,10.53
2019-01-04T11:26:20.892Z,9.70
2019-01-04T11:29:18.477Z,9.77
2019-01-04T11:32:18.745Z,9.33
2019-01-04T11:35:20.983Z,7.97
2019-01-04T11:38:34.098Z,9.43
2019-01-04T11:41:32.473Z,11.43
2019-01-04T11:44:18.870Z,8.60
2019-01-04T11:47:23.935Z,7.67
2019-01-04T11:50:49.327Z,8.70
2019-01-04T11:53:20.544Z,7.93
2019-01-04T11:55:50.663Z,6.73
2019-01-04T11:58:20.909Z,8.53
2019-01-04T12:00:50.199Z,7.63
2019-01-04T12:03:22.715Z,9.33
2019-01-04T12:05:51.862Z,9.73
2019-01-04T12:08:21.060Z,9.37
2019-01-04T12:10:50.311Z,8.90
2019-01-04T12:13:20.661Z,9.70
2019-01-04T12:15:53.085Z,8.97
2019-01-04T12:18:22.342Z,7.70
2019-01-04T12:20:53.510Z,9.30
2019-01-04T12:23:22.754Z,9.33
2019-01-04T12:25:55.152Z,8.73
2019-01-04T12:28:25.255Z,8.07
2019-01-04T12:31:08.502Z,8.23
2019-01-04T12:33:45.415Z,7.30
2019-01-04T12:36:14.597Z,8.87
2019-01-04T12:38:43.833Z,7.80
2019-01-04T12:41:24.734Z,7.87
2019-01-04T12:43:53.906Z,7.90
2019-01-04T12:46:23.274Z,8.70
2019-01-04T12:48:54.735Z,10.03
2019-01-04T12:51:24.055Z,9.53
2019-01-04T12:54:00.140Z,13.07
2019-01-04T12:56:30.378Z,11.37
2019-01-04T12:59:02.671Z,9.43
2019-01-04T13:01:32.909Z,8.87
2019-01-04T13:04:02.215Z,9.47
2019-01-04T13:06:31.400Z,8.77
2019-01-04T13:09:05.670Z,9.70
2019-01-04T13:11:39.057Z,9.57
2019-01-04T13:14:10.225Z,9.77
2019-01-04T13:16:51.568Z,10.83
2019-01-04T13:19:25.606Z,10.07
2019-01-04T13:21:57.800Z,10.43
2019-01-04T13:24:45.219Z,10.10
2019-01-04T13:27:16.505Z,9.43
2019-01-04T13:30:16.896Z,9.40
2019-01-04T13:32:48.077Z,9.13
2019-01-04T13:35:17.287Z,10.97
2019-01-04T13:37:46.565Z,9.30
2019-01-04T13:40:21.799Z,11.03
2019-01-04T13:42:52.994Z,10.13
2019-01-04T13:45:29.327Z,10.73
2019-01-04T13:48:04.459Z,12.57
2019-01-04T13:50:39.710Z,13.57
2019-01-04T13:53:10.892Z,11.87
2019-01-04T13:55:40.016Z,9.40
2019-01-04T13:58:09.173Z,10.20
2019-01-04T14:00:39.528Z,10.47
2019-01-04T14:03:09.699Z,11.40
2019-01-04T14:05:42.814Z,11.77
2019-01-04T14:08:12.068Z,11.00
2019-01-04T14:13:21.998Z,10.03
2019-01-04T14:15:51.267Z,11.27
2019-01-04T14:18:20.444Z,10.60
2019-01-04T14:20:49.724Z,10.23
2019-01-04T14:23:28.814Z,11.47
2019-01-04T14:25:54.973Z,13.63
2019-01-04T14:28:26.419Z,11.83
2019-01-04T14:30:56.751Z,12.10
2019-01-04T14:33:25.882Z,11.80
2019-01-04T14:35:55.080Z,12.30
2019-01-04T14:38:47.845Z,10.10
2019-01-04T14:41:23.220Z,9.73
2019-01-04T14:43:51.408Z,11.73
2019-01-04T14:46:25.780Z,12.63
2019-01-04T14:48:55.890Z,11.73
2019-01-04T14:51:25.188Z,11.80
2019-01-04T14:53:55.754Z,10.70
2019-01-04T14:56:30.158Z,10.53
2019-01-04T14:59:08.350Z,10.93
2019-01-04T15:01:47.479Z,11.20
2019-01-04T15:04:16.689Z,11.03
2019-01-04T15:06:49.258Z,11.10
2019-01-04T15:09:18.462Z,11.53
2019-01-04T15:11:47.658Z,11.47
2019-01-04T15:14:16.987Z,12.27
2019-01-04T15:16:53.012Z,13.13
2019-01-04T15:19:22.247Z,11.50
2019-01-04T15:21:51.986Z,14.43
2019-01-04T15:24:24.185Z,12.00
2019-01-04T15:26:53.417Z,13.60
2019-01-04T15:29:22.728Z,11.97
2019-01-04T15:31:51.908Z,12.13
2019-01-04T15:34:23.026Z,11.53
2019-01-04T15:36:53.221Z,11.90
2019-01-04T15:39:24.441Z,12.43
2019-01-04T15:42:00.669Z,10.40
2019-01-04T15:44:49.044Z,15.17
2019-01-04T15:47:30.354Z,14.53
2019-01-04T15:50:11.038Z,12.90
2019-01-04T15:52:51.556Z,13.97
2019-01-04T15:55:32.167Z,12.03
2019-01-04T15:58:13.481Z,14.23
2019-01-04T16:00:54.236Z,17.23
2019-01-04T16:03:35.478Z,20.13
2019-01-04T16:06:16.314Z,15.40
2019-01-04T16:08:45.607Z,15.60
2019-01-04T16:11:16.773Z,14.83
2019-01-04T16:13:46.083Z,15.07
2019-01-04T16:16:17.628Z,15.80
2019-01-04T16:18:48.747Z,13.47
2019-01-04T16:21:27.289Z,13.70
2019-01-04T16:23:56.470Z,12.97
2019-01-04T16:26:26.749Z,13.83
2019-01-04T16:28:56.940Z,13.87
2019-01-04T16:31:34.498Z,15.23
2019-01-04T16:34:15.433Z,14.03
2019-01-04T16:36:45.831Z,14.63
2019-01-04T16:39:18.478Z,14.43
2019-01-04T16:41:48.849Z,14.67
2019-01-04T16:44:19.552Z,14.47
2019-01-04T16:46:49.041Z,13.50
2019-01-04T16:49:18.702Z,14.03
2019-01-04T16:52:06.894Z,15.30
2019-01-04T16:54:48.305Z,13.93
2019-01-04T17:00:13.709Z,13.27
2019-01-04T17:02:54.642Z,13.40
2019-01-04T17:05:35.467Z,13.00
2019-01-04T17:08:15.884Z,15.27
2019-01-04T17:10:56.745Z,14.47
2019-01-04T17:16:16.811Z,14.60
2019-01-04T17:18:57.667Z,16.00
2019-01-04T17:21:38.566Z,16.70
2019-01-04T17:26:58.176Z,15.43
2019-01-04T17:32:22.843Z,16.70
2019-01-04T17:35:03.788Z,15.33
2019-01-04T17:37:44.635Z,16.40
2019-01-04T17:40:25.354Z,15.33
2019-01-04T17:43:06.214Z,16.13
2019-01-04T17:45:47.770Z,16.43
2019-01-04T17:48:29.022Z,14.57
2019-01-04T17:51:10.319Z,12.70
2019-01-04T17:53:51.416Z,15.60
2019-01-04T17:56:32.120Z,15.77
2019-01-04T17:59:13.381Z,15.13
2019-01-04T18:01:53.290Z,15.63
2019-01-04T18:04:34.606Z,13.97
2019-01-04T18:07:15.944Z,14.70
2019-01-04T18:09:56.356Z,13.70
2019-01-04T18:12:37.154Z,16.37
2019-01-04T18:15:16.918Z,14.87
2019-01-04T18:17:58.719Z,14.13
2019-01-04T18:20:39.710Z,13.53
2019-01-04T18:23:20.934Z,13.50
2019-01-04T18:26:02.000Z,14.40
2019-01-04T18:28:43.110Z,13.40
2019-01-04T18:31:24.470Z,13.60
2019-01-04T18:34:05.602Z,12.53
2019-01-04T18:36:46.946Z,13.40
2019-01-04T18:39:27.878Z,12.03
2019-01-04T18:42:09.112Z,12.80
2019-01-04T18:44:49.620Z,14.87
2019-01-04T18:47:30.248Z,13.40
2019-01-04T18:50:14.615Z,14.47
2019-01-04T18:52:56.467Z,13.77
2019-01-04T18:55:37.112Z,16.10
2019-01-04T18:58:19.992Z,13.10
2019-01-04T19:01:00.644Z,15.30
2019-01-04T19:03:41.662Z,14.97
2019-01-04T19:06:22.458Z,13.50
2019-01-04T19:09:03.931Z,13.40
2019-01-04T19:11:44.885Z,13.30
2019-01-04T19:14:25.641Z,14.97
2019-01-04T19:17:06.364Z,13.43
2019-01-04T19:19:47.051Z,12.97
2019-01-04T19:22:27.804Z,15.80
2019-01-04T19:25:08.199Z,14.17
2019-01-04T19:27:49.185Z,13.27
2019-01-04T19:30:29.921Z,12.47
2019-01-04T19:33:11.595Z,15.07
2019-01-04T19:38:32.310Z,15.60
2019-01-04T19:41:12.981Z,14.50
2019-01-04T19:43:54.616Z,13.97
2019-01-04T19:46:35.463Z,12.90
2019-01-04T19:49:16.337Z,15.20
2019-01-04T19:51:57.044Z,15.13
2019-01-04T19:54:38.364Z,16.10
2019-01-04T19:57:19.074Z,14.50
2019-01-04T19:59:59.853Z,14.00
2019-01-04T20:02:40.601Z,14.73
2019-01-04T20:05:32.474Z,13.53
2019-01-04T20:08:35.256Z,14.60
2019-01-04T20:14:16.929Z,12.60
2019-01-04T20:19:57.818Z,15.43
2019-01-04T20:26:04.551Z,13.40
2019-01-04T20:32:11.435Z,13.47
2019-01-04T20:40:41.145Z,14.37
2019-01-04T20:43:20.761Z,15.10
2019-01-04T20:46:22.389Z,12.67
2019-01-04T20:52:07.814Z,16.17
2019-01-04T20:55:14.133Z,14.60
2019-01-04T20:57:54.554Z,16.10
2019-01-04T21:00:33.984Z,13.93
2019-01-04T21:03:35.429Z,14.47
2019-01-04T21:09:20.571Z,15.20
2019-01-04T21:12:26.802Z,14.67
2019-01-04T21:15:31.261Z,13.97
2019-01-04T21:18:28.635Z,14.07
2019-01-04T21:21:25.975Z,14.53
2019-01-04T21:24:27.134Z,13.80
2019-01-04T21:27:22.019Z,14.53
2019-01-04T21:30:22.234Z,13.10
2019-01-04T21:33:23.633Z,12.97
2019-01-04T21:39:13.217Z,16.13
2019-01-04T21:44:58.808Z,13.50
2019-01-04T21:51:04.542Z,13.40
2019-01-04T21:54:03.289Z,13.53
2019-01-04T21:57:09.779Z,13.63
2019-01-04T22:00:10.929Z,11.60
2019-01-04T22:06:09.526Z,11.47
2019-01-04T22:12:18.371Z,15.00
2019-01-04T22:15:19.790Z,15.47
2019-01-04T22:18:21.075Z,14.33
2019-01-04T22:21:21.079Z,12.33
2019-01-04T22:24:27.025Z,14.80
2019-01-04T22:30:06.711Z,14.47
2019-01-04T22:35:50.685Z,14.47
2019-01-04T22:41:35.623Z,15.87
2019-01-04T22:44:23.850Z,13.73
2019-01-04T22:47:31.216Z,13.17
2019-01-04T22:53:42.743Z,14.47
2019-01-04T22:59:27.740Z,14.43
2019-01-04T23:05:31.846Z,12.50
2019-01-04T23:08:31.150Z,13.40
2019-01-04T23:11:32.638Z,12.00
2019-01-04T23:17:17.592Z,15.27
2019-01-04T23:20:14.142Z,13.33
2019-01-04T23:23:16.832Z,14.37
2019-01-04T23:29:25.324Z,14.40
2019-01-04T23:32:12.291Z,11.67
2019-01-04T23:35:19.915Z,12.80
2019-01-04T23:38:21.742Z,11.30
2019-01-04T23:41:05.840Z,11.07
2019-01-04T23:46:50.999Z,12.93
2019-01-04T23:49:39.132Z,12.93
2019-01-04T23:52:46.351Z,13.23
2019-01-04T23:55:42.032Z,13.37
2019-01-04T23:58:19.736Z,10.20
